Litchfield, Minnesota
Current Conditions -  °F | °C
As of 4:33 PM on Monday 20 Oct 2014 (Local Time) from KLJF Reporting Station
Clear Clear  
Wind Chill: 64°   Ceiling: Unl
Heat Index: 64°   Visibility: 10mi
Dew Point: 37°   Wind: 12mph
Humidity: 37%   Direction: 330°NNW
Pressure: 30.01"   Gusts: NA
Location:  45.13°N, 94.53°W
Report Text: KLJF 202133Z AUTO 33010KT 10SM CLR 18/03 A3001 RMK AO2
Loading
Personal Weather Stations






























Interactive Weather Map
Tropical Storm Tracking
New forecast layout! Learn more

10-Day Weather Forecast

Advertisements
Track Severe Weather on mobile